createdAt,value
2018-05-10T00:01:34.663Z,48.56
2018-05-10T00:04:03.154Z,48.75
2018-05-10T00:06:31.663Z,48.80
2018-05-10T00:09:00.066Z,48.76
2018-05-10T00:11:28.440Z,49.43
2018-05-10T00:13:56.772Z,49.93
2018-05-10T00:16:25.114Z,50.20
2018-05-10T00:18:53.463Z,50.25
2018-05-10T00:21:21.837Z,50.17
2018-05-10T00:23:50.959Z,50.21
2018-05-10T00:26:20.077Z,50.64
2018-05-10T00:28:48.405Z,50.47
2018-05-10T00:31:16.954Z,50.68
2018-05-10T00:33:45.282Z,51.21
2018-05-10T00:36:13.595Z,51.63
2018-05-10T00:38:41.944Z,51.67
2018-05-10T00:41:10.260Z,51.82
2018-05-10T00:43:39.360Z,52.57
2018-05-10T00:46:08.483Z,52.37
2018-05-10T00:48:36.811Z,52.39
2018-05-10T00:51:05.222Z,52.78
2018-05-10T00:53:33.892Z,52.97
2018-05-10T00:56:02.218Z,52.90
2018-05-10T00:58:30.558Z,53.15
2018-05-10T01:00:59.672Z,52.95
2018-05-10T01:03:27.999Z,52.64
2018-05-10T01:05:56.309Z,52.69
2018-05-10T01:08:24.659Z,52.71
2018-05-10T01:10:52.981Z,53.42
2018-05-10T01:13:21.287Z,53.37
2018-05-10T01:15:50.032Z,53.59
2018-05-10T01:18:19.129Z,54.12
2018-05-10T01:20:47.434Z,53.82
2018-05-10T01:23:15.786Z,53.84
2018-05-10T01:25:44.908Z,54.03
2018-05-10T01:28:13.226Z,54.73
2018-05-10T01:30:41.561Z,54.16
2018-05-10T01:33:09.877Z,54.05
2018-05-10T01:38:48.659Z,54.62
2018-05-10T01:41:17.766Z,54.89
2018-05-10T01:43:46.851Z,55.07
2018-05-10T01:46:15.923Z,55.34
2018-05-10T01:48:44.275Z,55.12
2018-05-10T01:51:12.584Z,55.16
2018-05-10T01:53:40.888Z,55.46
2018-05-10T01:56:10.169Z,55.68
2018-05-10T01:58:38.503Z,55.91
2018-05-10T02:01:06.818Z,56.09
2018-05-10T02:03:35.186Z,55.25
2018-05-10T02:06:03.503Z,55.64
2018-05-10T02:08:32.643Z,55.87
2018-05-10T02:11:01.008Z,56.04
2018-05-10T02:13:29.355Z,55.82
2018-05-10T02:15:57.672Z,55.73
2018-05-10T02:18:26.304Z,55.78
2018-05-10T02:20:54.630Z,55.89
2018-05-10T02:23:23.027Z,55.91
2018-05-10T02:25:51.374Z,56.86
2018-05-10T02:28:19.700Z,57.37
2018-05-10T02:30:48.001Z,57.07
2018-05-10T02:33:16.352Z,57.03
2018-05-10T02:35:44.714Z,57.05
2018-05-10T02:38:13.071Z,57.47
2018-05-10T02:40:41.666Z,57.83
2018-05-10T02:43:09.991Z,58.03
2018-05-10T02:45:39.096Z,57.77
2018-05-10T02:48:08.201Z,57.62
2018-05-10T02:50:37.305Z,57.11
2018-05-10T02:53:06.393Z,56.75
2018-05-10T02:55:35.494Z,57.37
2018-05-10T02:58:04.639Z,57.78
2018-05-10T03:00:32.931Z,57.73
2018-05-10T03:03:01.812Z,58.30
2018-05-10T03:05:30.141Z,58.15
2018-05-10T03:07:59.228Z,58.63
2018-05-10T03:10:27.566Z,58.46
2018-05-10T03:12:55.881Z,58.62
2018-05-10T03:15:24.951Z,58.78
2018-05-10T03:17:53.276Z,58.52
2018-05-10T03:20:22.351Z,58.26
2018-05-10T03:22:50.668Z,58.49
2018-05-10T03:25:19.619Z,58.39
2018-05-10T03:27:47.947Z,58.76
2018-05-10T03:30:16.285Z,58.85
2018-05-10T03:32:45.392Z,58.53
2018-05-10T03:35:14.466Z,59.46
2018-05-10T03:37:42.760Z,59.79
2018-05-10T03:40:11.849Z,59.34
2018-05-10T03:42:40.911Z,58.44
2018-05-10T03:45:09.237Z,58.06
2018-05-10T03:47:38.694Z,57.84
2018-05-10T03:50:07.037Z,58.06
2018-05-10T03:52:35.352Z,58.09
2018-05-10T03:55:04.506Z,58.12
2018-05-10T03:57:32.828Z,58.05
2018-05-10T04:00:01.155Z,57.58
2018-05-10T04:05:55.613Z,57.70
2018-05-10T04:08:41.358Z,57.42
2018-05-10T04:11:29.151Z,58.28
2018-05-10T04:13:57.509Z,58.22
2018-05-10T04:16:26.613Z,58.27
2018-05-10T04:18:54.918Z,58.42
2018-05-10T04:21:23.452Z,58.09
2018-05-10T04:23:51.808Z,58.54
2018-05-10T04:26:20.129Z,57.99
2018-05-10T04:28:48.762Z,58.12
2018-05-10T04:31:17.090Z,58.05
2018-05-10T04:33:45.444Z,58.14
2018-05-10T04:36:14.547Z,57.75
2018-05-10T04:38:42.861Z,58.96
2018-05-10T04:41:11.214Z,58.42
2018-05-10T04:43:39.867Z,58.67
2018-05-10T04:46:08.941Z,59.21
2018-05-10T04:48:38.035Z,60.51
2018-05-10T04:51:06.358Z,60.69
2018-05-10T04:53:34.670Z,60.17
2018-05-10T04:56:02.993Z,59.29
2018-05-10T04:58:32.084Z,58.65
2018-05-10T05:01:01.184Z,58.07
2018-05-10T05:03:30.289Z,57.39
2018-05-10T05:05:59.653Z,58.00
2018-05-10T05:08:28.053Z,58.67
2018-05-10T05:10:57.144Z,58.28
2018-05-10T05:13:26.231Z,56.45
2018-05-10T05:15:54.563Z,55.78
2018-05-10T05:18:22.886Z,55.23
2018-05-10T05:20:51.219Z,54.96
2018-05-10T05:23:19.542Z,55.15
2018-05-10T05:25:47.865Z,54.74
2018-05-10T05:28:16.528Z,55.55
2018-05-10T05:30:45.883Z,55.62
2018-05-10T05:33:14.210Z,54.99
2018-05-10T05:35:42.567Z,54.12
2018-05-10T05:38:10.913Z,54.27
2018-05-10T05:40:39.222Z,53.29
2018-05-10T05:43:07.563Z,53.55
2018-05-10T05:45:35.906Z,52.76
2018-05-10T05:48:04.986Z,52.05
2018-05-10T05:50:33.581Z,51.12
2018-05-10T05:53:01.899Z,50.81
2018-05-10T05:55:30.263Z,50.79
2018-05-10T05:57:58.614Z,51.14
2018-05-10T06:00:27.705Z,51.06
2018-05-10T06:02:56.065Z,50.01
2018-05-10T06:05:24.424Z,50.44
2018-05-10T06:07:52.738Z,53.07
2018-05-10T06:10:21.039Z,53.03
2018-05-10T06:12:49.699Z,53.03
2018-05-10T06:15:18.027Z,51.60
2018-05-10T06:17:46.354Z,51.27
2018-05-10T06:20:14.696Z,50.46
2018-05-10T06:22:43.043Z,49.99
2018-05-10T06:25:11.503Z,49.81
2018-05-10T06:27:39.747Z,49.63
2018-05-10T06:30:08.099Z,49.86
2018-05-10T06:32:36.423Z,49.49
2018-05-10T06:35:04.863Z,49.71
2018-05-10T06:37:33.193Z,50.24
2018-05-10T06:40:02.300Z,48.94
2018-05-10T06:42:31.450Z,48.63
2018-05-10T06:44:59.780Z,48.49
2018-05-10T06:47:28.135Z,48.86
2018-05-10T06:49:56.488Z,49.54
2018-05-10T06:52:24.844Z,49.63
2018-05-10T06:54:53.178Z,50.80
2018-05-10T06:57:22.795Z,50.67
2018-05-10T06:59:51.122Z,51.70
2018-05-10T07:02:19.700Z,51.56
2018-05-10T07:04:48.036Z,51.82
2018-05-10T07:07:16.383Z,51.10
2018-05-10T07:09:44.875Z,50.17
2018-05-10T07:12:13.114Z,50.11
2018-05-10T07:14:41.424Z,49.62
2018-05-10T07:17:09.750Z,49.47
2018-05-10T07:19:38.501Z,49.98
2018-05-10T07:22:06.815Z,49.93
2018-05-10T07:24:35.138Z,50.18
2018-05-10T07:27:03.495Z,49.61
2018-05-10T07:29:31.834Z,50.08
2018-05-10T07:32:00.175Z,50.21
2018-05-10T07:34:28.556Z,48.64
2018-05-10T07:36:56.879Z,48.48
2018-05-10T07:39:25.219Z,48.60
2018-05-10T07:41:53.611Z,48.74
2018-05-10T07:44:21.947Z,49.07
2018-05-10T07:46:50.256Z,49.16
2018-05-10T07:49:18.598Z,49.34
2018-05-10T07:51:46.912Z,48.52
2018-05-10T07:54:15.246Z,47.47
2018-05-10T07:56:43.618Z,46.50
2018-05-10T07:59:11.962Z,45.41
2018-05-10T08:01:41.088Z,45.42
2018-05-10T08:04:09.961Z,44.57
2018-05-10T08:06:39.069Z,44.08
2018-05-10T08:09:07.430Z,44.06
2018-05-10T08:11:35.870Z,43.95
2018-05-10T08:14:04.212Z,42.34
2018-05-10T08:16:33.311Z,41.95
2018-05-10T08:19:02.419Z,41.72
2018-05-10T08:21:31.487Z,43.33
2018-05-10T08:24:00.563Z,43.75
2018-05-10T08:26:29.360Z,44.41
2018-05-10T08:28:57.717Z,44.75
2018-05-10T08:31:26.078Z,45.68
2018-05-10T08:33:54.595Z,44.86
2018-05-10T08:36:22.901Z,45.56
2018-05-10T08:38:52.001Z,46.21
2018-05-10T08:41:20.372Z,45.33
2018-05-10T08:43:48.714Z,45.98
2018-05-10T08:46:17.032Z,45.02
2018-05-10T08:48:45.918Z,43.89
2018-05-10T08:51:14.232Z,43.93
2018-05-10T08:53:42.596Z,43.18
2018-05-10T08:56:10.936Z,43.19
2018-05-10T08:58:39.273Z,42.99
2018-05-10T09:01:07.587Z,41.83
2018-05-10T09:03:35.943Z,42.20
2018-05-10T09:06:10.200Z,43.81
2018-05-10T09:08:39.138Z,42.68
2018-05-10T09:11:07.476Z,41.91
2018-05-10T09:13:35.827Z,41.75
2018-05-10T09:16:04.194Z,42.71
2018-05-10T09:18:32.504Z,42.86
2018-05-10T09:21:01.632Z,43.25
2018-05-10T09:23:30.016Z,42.72
2018-05-10T09:25:58.398Z,41.83
2018-05-10T09:28:26.724Z,41.87
2018-05-10T09:30:55.645Z,40.90
2018-05-10T09:33:23.959Z,40.90
2018-05-10T09:35:52.310Z,40.49
2018-05-10T09:38:21.457Z,40.57
2018-05-10T09:40:49.810Z,41.16
2018-05-10T09:43:18.167Z,41.56
2018-05-10T09:45:47.302Z,41.08
2018-05-10T09:48:15.611Z,40.02
2018-05-10T09:50:43.956Z,38.92
2018-05-10T09:53:12.493Z,38.87
2018-05-10T09:55:41.595Z,37.89
2018-05-10T09:58:10.667Z,37.49
2018-05-10T10:00:39.789Z,37.49
2018-05-10T10:03:08.876Z,38.04
2018-05-10T10:05:37.949Z,37.40
2018-05-10T10:08:06.314Z,37.11
2018-05-10T10:10:34.679Z,37.01
2018-05-10T10:13:03.002Z,35.53
2018-05-10T10:15:32.613Z,34.91
2018-05-10T10:18:00.942Z,35.11
2018-05-10T10:20:29.311Z,34.61
2018-05-10T10:22:57.671Z,35.20
2018-05-10T10:25:25.991Z,35.00
2018-05-10T10:27:55.097Z,34.46
2018-05-10T10:30:23.469Z,34.05
2018-05-10T10:32:51.881Z,33.68
2018-05-10T10:35:20.993Z,34.07
2018-05-10T10:37:50.180Z,34.63
2018-05-10T10:40:18.510Z,33.84
2018-05-10T10:42:46.927Z,33.37
2018-05-10T10:45:16.047Z,32.55
2018-05-10T10:47:45.122Z,31.90
2018-05-10T10:50:14.266Z,32.01
2018-05-10T10:52:42.623Z,33.17
2018-05-10T10:55:10.955Z,33.14
2018-05-10T10:57:39.268Z,32.31
2018-05-10T11:00:07.955Z,31.40
2018-05-10T11:02:36.297Z,31.18
2018-05-10T11:05:04.627Z,31.14
2018-05-10T11:07:33.031Z,30.73
2018-05-10T11:10:01.359Z,31.28
2018-05-10T11:12:29.699Z,32.19
2018-05-10T11:14:58.129Z,32.57
2018-05-10T11:17:27.221Z,32.28
2018-05-10T11:19:56.299Z,31.44
2018-05-10T11:22:24.863Z,30.86
2018-05-10T11:24:53.935Z,30.93
2018-05-10T11:27:22.343Z,31.11
2018-05-10T11:29:51.401Z,31.11
2018-05-10T11:32:19.887Z,32.29
2018-05-10T11:34:48.230Z,32.00
2018-05-10T11:37:17.335Z,32.15
2018-05-10T11:39:46.420Z,31.81
2018-05-10T11:42:15.516Z,31.44
2018-05-10T11:44:44.902Z,31.47
2018-05-10T11:47:13.212Z,31.99
2018-05-10T11:49:41.567Z,32.58
2018-05-10T11:52:09.938Z,33.02
2018-05-10T11:54:38.254Z,32.87
2018-05-10T11:57:06.566Z,31.73
2018-05-10T11:59:34.933Z,31.84
2018-05-10T12:02:03.287Z,31.19
2018-05-10T12:04:32.479Z,31.15
2018-05-10T12:07:01.911Z,31.79
2018-05-10T12:09:30.232Z,32.00
2018-05-10T12:11:58.558Z,33.29
2018-05-10T12:14:26.927Z,33.54
2018-05-10T12:16:55.292Z,33.14
2018-05-10T12:19:24.423Z,33.85
2018-05-10T12:21:52.792Z,34.93
2018-05-10T12:24:21.121Z,36.50
2018-05-10T12:26:49.451Z,36.97
2018-05-10T12:29:18.045Z,40.39
2018-05-10T12:31:46.376Z,38.00
2018-05-10T12:34:14.675Z,39.32
2018-05-10T12:36:43.775Z,43.50
2018-05-10T12:39:12.854Z,41.76
2018-05-10T12:41:42.028Z,40.32
2018-05-10T12:44:11.125Z,42.21
2018-05-10T12:46:39.458Z,42.12
2018-05-10T12:49:07.797Z,44.12
2018-05-10T12:51:36.616Z,46.37
2018-05-10T12:54:04.958Z,46.23
2018-05-10T12:56:33.865Z,47.59
2018-05-10T12:59:03.008Z,50.42
2018-05-10T13:01:31.391Z,52.90
2018-05-10T13:03:59.718Z,53.66
2018-05-10T13:06:28.079Z,53.33
2018-05-10T13:08:56.428Z,51.42
2018-05-10T13:11:24.749Z,53.07
2018-05-10T13:13:53.534Z,51.06
2018-05-10T13:16:21.869Z,53.48
2018-05-10T13:18:50.211Z,53.70
2018-05-10T13:21:19.342Z,52.45
2018-05-10T13:23:47.672Z,52.79
2018-05-10T13:26:16.032Z,53.05
2018-05-10T13:28:44.366Z,52.68
2018-05-10T13:31:12.702Z,52.91
2018-05-10T13:33:41.026Z,53.98
2018-05-10T13:36:09.703Z,53.56
2018-05-10T13:38:38.032Z,54.91
2018-05-10T13:41:07.138Z,57.46
2018-05-10T13:43:35.496Z,58.92
2018-05-10T13:46:03.804Z,58.40
2018-05-10T13:48:32.147Z,59.83
2018-05-10T13:51:00.487Z,65.19
2018-05-10T13:53:29.582Z,58.08
2018-05-10T13:55:58.657Z,62.99
2018-05-10T13:58:27.443Z,62.79
2018-05-10T14:00:55.778Z,66.97
2018-05-10T14:03:24.138Z,72.21
2018-05-10T14:05:52.477Z,72.62
2018-05-10T14:08:20.836Z,66.95
2018-05-10T14:10:49.289Z,71.51
2018-05-10T14:13:17.593Z,70.18
2018-05-10T14:15:45.972Z,69.52
2018-05-10T14:18:14.320Z,67.13
2018-05-10T14:20:43.392Z,64.89
2018-05-10T14:23:11.762Z,65.63
2018-05-10T14:25:40.855Z,65.94
2018-05-10T14:28:09.975Z,67.24
2018-05-10T14:30:39.062Z,67.19
2018-05-10T14:33:08.172Z,67.20
2018-05-10T14:35:36.522Z,68.52
2018-05-10T14:38:04.877Z,69.78
2018-05-10T14:40:33.195Z,70.79
2018-05-10T14:43:02.514Z,69.76
2018-05-10T14:45:30.826Z,69.28
2018-05-10T14:47:59.171Z,68.81
2018-05-10T14:50:27.538Z,69.23
2018-05-10T14:52:56.653Z,69.50
2018-05-10T14:55:25.004Z,68.43
2018-05-10T14:57:53.376Z,68.78
2018-05-10T15:00:22.464Z,68.66
2018-05-10T15:02:50.788Z,68.42
2018-05-10T15:05:19.391Z,67.85
2018-05-10T15:07:47.723Z,67.03
2018-05-10T15:10:16.823Z,65.91
2018-05-10T15:12:45.198Z,67.13
2018-05-10T15:15:13.528Z,66.30
2018-05-10T15:17:42.654Z,65.81
2018-05-10T15:20:11.023Z,65.13
2018-05-10T15:22:39.340Z,65.33
2018-05-10T15:25:07.670Z,65.65
2018-05-10T15:27:36.211Z,65.83
2018-05-10T15:30:04.554Z,64.94
2018-05-10T15:32:32.947Z,62.23
2018-05-10T15:35:01.303Z,62.88
2018-05-10T15:37:29.617Z,61.58
2018-05-10T15:39:57.952Z,60.98
2018-05-10T15:42:26.330Z,60.46
2018-05-10T15:44:54.655Z,60.61
2018-05-10T15:47:23.006Z,62.04
2018-05-10T15:49:52.007Z,62.53
2018-05-10T15:52:20.340Z,59.97
2018-05-10T15:54:48.653Z,60.55
2018-05-10T15:57:17.027Z,61.87
2018-05-10T15:59:45.325Z,62.41
2018-05-10T16:02:13.636Z,62.54
2018-05-10T16:04:41.978Z,63.50
2018-05-10T16:07:11.077Z,62.57
2018-05-10T16:09:40.167Z,62.64
2018-05-10T16:12:09.501Z,61.66
2018-05-10T16:14:37.860Z,60.50
2018-05-10T16:17:06.184Z,60.71
2018-05-10T16:19:34.542Z,60.02
2018-05-10T16:22:02.875Z,60.00
2018-05-10T16:24:31.240Z,59.13
2018-05-10T16:26:59.581Z,59.33
2018-05-10T16:29:27.894Z,59.28
2018-05-10T16:31:56.214Z,58.84
2018-05-10T16:34:24.990Z,58.56
2018-05-10T16:36:54.093Z,60.19
2018-05-10T16:39:23.279Z,60.63
2018-05-10T16:41:51.568Z,60.99
2018-05-10T16:44:20.656Z,61.17
2018-05-10T16:46:48.962Z,62.23
2018-05-10T16:49:17.310Z,60.95
2018-05-10T16:51:45.687Z,61.80
2018-05-10T16:54:14.013Z,60.54
2018-05-10T16:56:42.854Z,58.29
2018-05-10T16:59:11.181Z,59.09
2018-05-10T17:01:39.511Z,59.48
2018-05-10T17:04:07.843Z,59.65
2018-05-10T17:06:36.166Z,59.91
2018-05-10T17:09:04.523Z,59.07
2018-05-10T17:11:33.643Z,60.92
2018-05-10T17:14:01.977Z,59.66
2018-05-10T17:16:30.326Z,60.16
2018-05-10T17:18:58.978Z,58.74
2018-05-10T17:21:27.312Z,59.33
2018-05-10T17:23:55.656Z,57.96
2018-05-10T17:26:24.830Z,58.17
2018-05-10T17:28:53.148Z,57.76
2018-05-10T17:31:21.479Z,58.87
2018-05-10T17:33:49.831Z,57.48
2018-05-10T17:36:18.145Z,57.74
2018-05-10T17:38:46.471Z,59.00
2018-05-10T17:41:15.116Z,58.97
2018-05-10T17:43:43.457Z,55.79
2018-05-10T17:46:11.772Z,57.51
2018-05-10T17:48:40.101Z,56.56
2018-05-10T17:51:08.445Z,56.89
2018-05-10T17:53:36.788Z,55.50
2018-05-10T17:56:05.146Z,55.51
2018-05-10T17:58:33.471Z,57.34
2018-05-10T18:01:01.874Z,55.19
2018-05-10T18:03:30.446Z,57.70
2018-05-10T18:05:58.778Z,57.12
2018-05-10T18:08:27.122Z,56.30
2018-05-10T18:10:55.479Z,55.31
2018-05-10T18:13:23.809Z,55.69
2018-05-10T18:15:52.122Z,55.70
2018-05-10T18:18:20.478Z,56.41
2018-05-10T18:20:48.842Z,55.77
2018-05-10T18:23:17.323Z,57.29
2018-05-10T18:25:46.785Z,57.65
2018-05-10T18:28:15.866Z,57.96
2018-05-10T18:30:44.172Z,56.21
2018-05-10T18:33:12.534Z,57.67
2018-05-10T18:35:41.651Z,57.44
2018-05-10T18:38:10.054Z,57.96
2018-05-10T18:40:38.385Z,57.04
2018-05-10T18:43:07.449Z,57.22
2018-05-10T18:45:35.807Z,56.12
2018-05-10T18:48:04.293Z,57.21
2018-05-10T18:50:32.588Z,57.18
2018-05-10T18:53:00.944Z,56.54
2018-05-10T18:55:29.295Z,57.46
2018-05-10T18:57:58.376Z,57.82
2018-05-10T19:00:27.483Z,56.52
2018-05-10T19:02:55.844Z,56.96
2018-05-10T19:05:24.955Z,56.38
2018-05-10T19:07:53.312Z,55.96
2018-05-10T19:10:21.890Z,56.06
2018-05-10T19:12:50.215Z,58.13
2018-05-10T19:15:18.666Z,56.08
2018-05-10T19:17:46.924Z,55.82
2018-05-10T19:20:15.290Z,55.59
2018-05-10T19:22:43.599Z,56.60
2018-05-10T19:25:11.933Z,56.15
2018-05-10T19:27:40.245Z,55.49
2018-05-10T19:30:08.622Z,57.03
2018-05-10T19:32:37.466Z,56.24
2018-05-10T19:35:05.783Z,56.34
2018-05-10T19:37:34.137Z,57.04
2018-05-10T19:40:02.490Z,57.75
2018-05-10T19:42:30.809Z,59.54
2018-05-10T19:44:59.127Z,60.20
2018-05-10T19:47:28.266Z,62.03
2018-05-10T19:49:56.624Z,63.49
2018-05-10T19:52:24.941Z,62.94
2018-05-10T19:54:53.810Z,62.89
2018-05-10T19:57:22.170Z,63.96
2018-05-10T19:59:50.500Z,64.10
2018-05-10T20:02:19.075Z,62.96
2018-05-10T20:04:47.395Z,62.16
2018-05-10T20:07:16.490Z,62.12
2018-05-10T20:09:45.626Z,63.04
2018-05-10T20:12:13.984Z,63.71
2018-05-10T20:14:42.335Z,62.79
2018-05-10T20:17:11.632Z,62.38
2018-05-10T20:19:39.958Z,63.48
2018-05-10T20:22:08.267Z,61.72
2018-05-10T20:24:36.672Z,62.58
2018-05-10T20:27:04.987Z,62.87
2018-05-10T20:29:33.293Z,63.21
2018-05-10T20:32:01.637Z,61.88
2018-05-10T20:34:29.979Z,62.73
2018-05-10T20:36:58.326Z,62.16
2018-05-10T20:39:26.737Z,62.76
2018-05-10T20:41:55.040Z,62.26
2018-05-10T20:44:24.157Z,62.49
2018-05-10T20:46:52.515Z,62.72
2018-05-10T20:49:20.907Z,63.46
2018-05-10T20:51:49.295Z,62.45
2018-05-10T20:54:17.648Z,63.04
2018-05-10T20:56:46.764Z,61.65
2018-05-10T20:59:15.085Z,61.79
2018-05-10T21:01:43.794Z,62.27
2018-05-10T21:04:12.125Z,62.06
2018-05-10T21:06:40.443Z,61.65
2018-05-10T21:09:08.804Z,60.60
2018-05-10T21:11:37.129Z,61.45
2018-05-10T21:14:06.231Z,61.46
2018-05-10T21:16:34.728Z,61.52
2018-05-10T21:19:02.968Z,61.15
2018-05-10T21:21:31.326Z,61.49
2018-05-10T21:23:59.937Z,61.92
2018-05-10T21:26:29.048Z,62.30
2018-05-10T21:28:57.353Z,62.90
2018-05-10T21:31:25.690Z,62.45
2018-05-10T21:33:54.868Z,62.13
2018-05-10T21:36:23.095Z,63.16
2018-05-10T21:38:51.474Z,61.59
2018-05-10T21:41:19.815Z,61.67
2018-05-10T21:43:48.165Z,61.47
2018-05-10T21:46:16.835Z,61.08
2018-05-10T21:48:45.139Z,61.66
2018-05-10T21:51:13.463Z,60.74
2018-05-10T21:53:41.965Z,61.68
2018-05-10T21:56:10.261Z,61.36
2018-05-10T21:58:38.636Z,61.39
2018-05-10T22:01:06.998Z,62.35
2018-05-10T22:03:35.336Z,63.96
2018-05-10T22:06:04.429Z,63.77
2018-05-10T22:08:33.217Z,62.80
2018-05-10T22:11:01.516Z,62.19
2018-05-10T22:13:30.608Z,62.59
2018-05-10T22:15:59.743Z,63.10
2018-05-10T22:18:28.081Z,64.17
2018-05-10T22:20:57.184Z,64.34
2018-05-10T22:23:25.517Z,63.05
2018-05-10T22:25:53.857Z,63.41
2018-05-10T22:28:22.220Z,63.01
2018-05-10T22:30:51.560Z,62.57
2018-05-10T22:33:19.890Z,63.05
2018-05-10T22:35:48.985Z,62.92
2018-05-10T22:38:17.357Z,63.34
2018-05-10T22:40:46.444Z,63.13
2018-05-10T22:43:14.787Z,63.35
2018-05-10T22:45:43.155Z,63.87
2018-05-10T22:48:11.459Z,63.26
2018-05-10T22:50:40.536Z,63.75
2018-05-10T22:53:09.279Z,63.58
2018-05-10T22:55:38.375Z,63.02
2018-05-10T22:58:07.456Z,63.47
2018-05-10T23:00:36.271Z,62.96
2018-05-10T23:03:04.579Z,63.47
2018-05-10T23:05:32.910Z,63.15
2018-05-10T23:08:02.072Z,63.26
2018-05-10T23:10:30.377Z,63.32
2018-05-10T23:12:58.678Z,63.20
2018-05-10T23:15:28.038Z,63.93
2018-05-10T23:17:56.336Z,63.79
2018-05-10T23:20:24.712Z,63.81
2018-05-10T23:22:53.100Z,63.96
2018-05-10T23:25:21.396Z,63.15
2018-05-10T23:27:50.480Z,63.13
2018-05-10T23:30:19.589Z,63.14
2018-05-10T23:32:48.666Z,63.72
2018-05-10T23:35:16.985Z,63.27
2018-05-10T23:37:46.303Z,64.08
2018-05-10T23:40:14.634Z,64.15
2018-05-10T23:42:43.747Z,64.44
2018-05-10T23:45:12.840Z,63.92
2018-05-10T23:47:41.155Z,63.92
2018-05-10T23:50:09.464Z,64.25
2018-05-10T23:52:37.833Z,65.09
2018-05-10T23:55:06.170Z,63.99
2018-05-10T23:57:34.484Z,63.60
